Time;durP1;ratioP1;P1;durP2;ratioP2;P2;SDS_P1;SDS_P2;PMS_P1;PMS_P2;Temp;Humidity;BMP_temperature;BMP_pressure;BME280_temperature;BME280_humidity;BME280_pressure;Samples;Min_cycle;Max_cycle;Signal;HPM_P1;HPM_P2
2021/06/17 00:00:48;;;;;;;12.07;10.88;;;;;;;18.35;40.38;101005.31;4914677;28;97046;-77
2021/06/17 00:03:16;;;;;;;11.30;10.13;;;;;;;18.32;40.58;101000.81;4914046;28;97199;-77
2021/06/17 00:05:45;;;;;;;13.38;10.40;;;;;;;18.29;40.47;101008.03;4911051;28;98292;-77
2021/06/17 00:08:13;;;;;;;11.32;10.32;;;;;;;18.27;40.69;100999.06;4896361;28;98512;-78
2021/06/17 00:10:44;;;;;;;12.57;11.37;;;;;;;18.62;40.66;100992.47;4910742;28;97303;-77
2021/06/17 00:13:14;;;;;;;11.95;10.95;;;;;;;18.38;40.90;100999.88;4923812;28;97435;-77
2021/06/17 00:15:44;;;;;;;11.50;10.30;;;;;;;18.29;40.95;101003.56;4906629;28;100491;-77
2021/06/17 00:18:12;;;;;;;12.05;10.88;;;;;;;18.25;40.87;100998.19;4905447;28;97739;-77
2021/06/17 00:20:41;;;;;;;11.23;10.30;;;;;;;18.19;40.82;100987.44;4893294;28;97462;-76
2021/06/17 00:23:09;;;;;;;12.40;10.88;;;;;;;18.15;41.09;100991.09;4909720;28;96997;-77
2021/06/17 00:25:38;;;;;;;11.13;10.23;;;;;;;18.13;41.01;100987.50;4908583;28;99270;-77
2021/06/17 00:28:07;;;;;;;12.13;10.57;;;;;;;18.10;40.95;100992.88;4906960;28;98988;-77
2021/06/17 00:30:35;;;;;;;13.13;10.23;;;;;;;18.07;40.90;100993.81;4908347;28;97478;-77
2021/06/17 00:33:05;;;;;;;11.68;10.52;;;;;;;18.06;40.88;101001.91;4911036;28;96981;-77
2021/06/17 00:35:32;;;;;;;11.75;10.52;;;;;;;18.00;41.12;101001.00;4905405;28;100367;-76
2021/06/17 00:38:01;;;;;;;13.33;11.73;;;;;;;18.40;40.98;100990.91;4904653;28;100451;-79
2021/06/17 00:40:30;;;;;;;11.73;10.20;;;;;;;18.15;41.05;100997.34;4906566;28;96982;-76
2021/06/17 00:42:59;;;;;;;11.75;10.60;;;;;;;18.04;41.21;100994.72;4910844;28;97042;-77
2021/06/17 00:45:31;;;;;;;13.67;12.33;;;;;;;18.40;40.89;100998.06;4913033;28;98185;-76
2021/06/17 00:47:59;;;;;;;13.27;12.05;;;;;;;18.52;40.64;100992.56;4910407;28;97773;-77
2021/06/17 00:50:28;;;;;;;12.93;10.23;;;;;;;18.19;41.03;100991.03;4906841;28;97072;-77
2021/06/17 00:52:56;;;;;;;13.43;12.13;;;;;;;18.49;40.78;100992.63;4907375;28;97425;-76
2021/06/17 00:55:24;;;;;;;11.68;10.70;;;;;;;18.16;40.87;100992.84;4909664;28;96793;-77
2021/06/17 00:57:52;;;;;;;10.70;9.60;;;;;;;18.04;41.56;100993.81;4912125;28;97567;-77
2021/06/17 01:00:21;;;;;;;11.15;10.02;;;;;;;17.97;41.47;100995.63;4892576;28;97194;-76
2021/06/17 01:02:50;;;;;;;11.43;10.32;;;;;;;17.92;41.44;100991.19;4909059;28;98645;-77
2021/06/17 01:05:20;;;;;;;12.95;11.73;;;;;;;18.29;41.35;100989.19;4905995;28;99801;-77
2021/06/17 01:07:57;;;;;;;13.70;12.30;;;;;;;18.40;41.18;100987.31;4907634;28;96937;-77
2021/06/17 01:10:28;;;;;;;12.77;11.68;;;;;;;18.44;41.55;100986.38;4912193;28;97108;-78
2021/06/17 01:13:11;;;;;;;12.77;11.68;;;;;;;18.46;41.47;100977.34;4900047;28;97952;-77
2021/06/17 01:16:03;;;;;;;13.38;12.07;;;;;;;18.49;41.20;100979.13;4918987;28;99728;-77
2021/06/17 01:18:32;;;;;;;12.93;11.70;;;;;;;18.50;40.97;100983.59;4917042;28;99237;-77
2021/06/17 01:21:03;;;;;;;13.20;12.10;;;;;;;18.50;41.26;100975.53;4899206;28;97596;-76
2021/06/17 01:23:49;;;;;;;12.45;11.15;;;;;;;18.41;41.03;100970.22;4915555;28;97891;-78
2021/06/17 01:26:17;;;;;;;;;;;;;;;17.93;41.86;100966.94;4915281;28;98018;-78
2021/06/17 01:28:47;;;;;;;;;;;;;;;17.73;42.13;100966.16;4916761;28;98173;-78
2021/06/17 01:31:17;;;;;;;11.02;9.90;;;;;;;17.76;42.04;100962.56;4916235;28;97530;-78
2021/06/17 01:33:47;;;;;;;11.43;10.38;;;;;;;17.69;42.13;100966.19;4934500;28;97423;-80
2021/06/17 01:36:17;;;;;;;11.48;10.38;;;;;;;17.62;42.53;100959.91;4913223;28;98111;-78
2021/06/17 01:38:46;;;;;;;14.80;11.30;;;;;;;17.57;42.60;100959.06;4900981;28;99079;-78
2021/06/17 01:41:14;;;;;;;12.13;10.43;;;;;;;17.52;42.46;100957.28;4917901;28;97976;-78
2021/06/17 01:43:44;;;;;;;12.35;11.25;;;;;;;17.47;42.59;100960.03;4916120;28;97403;-78
2021/06/17 01:46:13;;;;;;;12.32;11.23;;;;;;;17.42;42.46;100956.44;4917494;28;98035;-77
2021/06/17 01:48:42;;;;;;;11.55;10.55;;;;;;;17.38;42.71;100951.97;4917060;28;99542;-78
2021/06/17 01:51:10;;;;;;;13.82;12.63;;;;;;;17.75;42.60;100949.97;4913668;28;96921;-78
2021/06/17 01:53:39;;;;;;;12.75;11.35;;;;;;;17.47;42.82;100946.56;4908476;28;97330;-77
2021/06/17 01:56:08;;;;;;;14.65;13.15;;;;;;;17.77;42.73;100949.09;4907300;28;97208;-77
2021/06/17 01:58:36;;;;;;;15.65;12.80;;;;;;;17.86;42.62;100940.94;4905887;28;99503;-77
2021/06/17 02:01:04;;;;;;;;;;;;;;;17.38;43.02;100935.84;4888779;28;97338;-77
2021/06/17 02:03:34;;;;;;;;;;;;;;;17.22;43.42;100939.44;4907693;28;99077;-77
2021/06/17 02:06:02;;;;;;;14.30;12.37;;;;;;;17.67;42.88;100935.69;4908630;28;98967;-76
2021/06/17 02:08:30;;;;;;;14.25;12.77;;;;;;;17.77;42.92;100934.72;4896402;28;99024;-77
2021/06/17 02:10:58;;;;;;;14.77;13.48;;;;;;;17.83;42.66;100946.38;4913992;28;97448;-77
2021/06/17 02:13:26;;;;;;;14.40;13.00;;;;;;;17.87;42.65;100942.75;4915413;28;97226;-78
2021/06/17 02:15:54;;;;;;;15.20;13.30;;;;;;;17.89;42.62;100930.16;4896362;28;99289;-78
2021/06/17 02:18:25;;;;;;;12.55;11.45;;;;;;;17.51;43.25;100937.53;4917170;28;98164;-77
2021/06/17 02:20:55;;;;;;;13.23;11.10;;;;;;;17.37;43.34;100933.09;4912846;28;97989;-77
2021/06/17 02:23:24;;;;;;;14.15;10.75;;;;;;;17.29;43.31;100926.88;4931762;28;97227;-76
2021/06/17 02:25:53;;;;;;;14.52;13.07;;;;;;;17.64;43.02;100923.13;4913868;28;100813;-78
2021/06/17 02:28:24;;;;;;;13.00;11.73;;;;;;;17.34;43.42;100925.97;4932496;28;101071;-77
2021/06/17 02:30:54;;;;;;;13.48;12.10;;;;;;;17.21;43.70;100918.84;4913337;28;97127;-79
2021/06/17 02:33:23;;;;;;;14.70;13.40;;;;;;;17.56;43.56;100916.00;4914952;28;97559;-78
2021/06/17 02:35:53;;;;;;;13.35;11.98;;;;;;;17.24;43.88;100913.44;4899984;28;97943;-77
2021/06/17 02:38:26;;;;;;;13.60;11.52;;;;;;;17.14;43.92;100913.47;4918818;28;98944;-77
2021/06/17 02:40:57;;;;;;;15.20;13.80;;;;;;;17.45;43.89;100921.47;4916683;28;96802;-77
2021/06/17 02:43:25;;;;;;;13.95;12.55;;;;;;;17.16;44.41;100922.44;4919054;28;97692;-77
2021/06/17 02:45:55;;;;;;;13.00;11.90;;;;;;;17.05;44.28;100917.97;4913301;28;98140;-79
2021/06/17 02:48:23;;;;;;;15.95;12.35;;;;;;;16.97;44.24;100917.13;4907595;28;97696;-79
2021/06/17 02:50:51;;;;;;;15.30;13.93;;;;;;;17.34;44.06;100933.13;4905219;28;97235;-77
2021/06/17 02:53:19;;;;;;;14.02;12.82;;;;;;;17.05;44.48;100925.16;4905600;28;97151;-77
2021/06/17 02:55:49;;;;;;;12.98;11.80;;;;;;;16.95;44.60;100926.06;4905003;28;99684;-77
2021/06/17 02:58:26;;;;;;;14.27;12.38;;;;;;;16.89;44.49;100931.47;4907279;28;99247;-78
2021/06/17 03:00:58;;;;;;;13.77;12.02;;;;;;;16.83;44.75;100924.34;4889902;28;96962;-78
2021/06/17 03:03:30;;;;;;;14.52;13.25;;;;;;;16.78;44.52;100926.13;4906332;28;97016;-79
2021/06/17 03:06:04;;;;;;;14.15;12.25;;;;;;;16.73;44.75;100918.97;4909623;28;97850;-78
2021/06/17 03:08:35;;;;;;;13.70;12.32;;;;;;;16.67;44.68;100921.66;4890991;28;100033;-77
2021/06/17 03:11:08;;;;;;;14.68;12.77;;;;;;;16.64;45.04;100927.00;4892820;28;96889;-78
2021/06/17 03:13:40;;;;;;;13.77;12.57;;;;;;;16.62;44.80;100924.31;4911834;28;97055;-77
2021/06/17 03:16:08;;;;;;;17.15;15.50;;;;;;;17.05;44.86;100917.09;4912781;28;98908;-78
2021/06/17 03:18:39;;;;;;;15.90;14.35;;;;;;;17.19;44.80;100923.31;4914885;28;97667;-77
2021/06/17 03:21:08;;;;;;;16.43;14.93;;;;;;;17.26;44.83;100917.00;4912099;28;97113;-76
2021/06/17 03:23:37;;;;;;;14.93;13.52;;;;;;;16.93;45.24;100919.81;4914185;28;97187;-78
2021/06/17 03:26:09;;;;;;;14.88;13.38;;;;;;;16.80;45.29;100924.31;4913647;28;97967;-78
2021/06/17 03:28:39;;;;;;;14.40;13.00;;;;;;;16.75;45.41;100928.81;4912602;28;99411;-79
2021/06/17 03:31:08;;;;;;;14.95;13.02;;;;;;;16.71;45.54;100921.66;4912354;28;96957;-78
2021/06/17 03:33:38;;;;;;;17.13;15.33;;;;;;;17.08;45.32;100922.47;4913609;28;97844;-77
2021/06/17 03:36:07;;;;;;;15.13;13.32;;;;;;;16.83;45.79;100926.13;4917978;28;97722;-78
2021/06/17 03:38:36;;;;;;;14.73;13.32;;;;;;;16.73;45.91;100925.25;4918974;28;97802;-78
2021/06/17 03:41:07;;;;;;;16.15;14.65;;;;;;;17.14;45.90;100926.94;4916438;28;96899;-77
2021/06/17 03:43:34;;;;;;;16.95;15.45;;;;;;;17.26;45.75;100922.38;4929132;28;97087;-78
2021/06/17 03:46:03;;;;;;;17.38;15.65;;;;;;;17.33;45.79;100929.53;4914711;28;98463;-78
2021/06/17 03:48:32;;;;;;;20.00;16.20;;;;;;;17.39;45.64;100925.94;4913484;28;97846;-78
2021/06/17 03:51:01;;;;;;;14.20;12.70;;;;;;;17.05;46.29;100919.78;4912990;28;97143;-76
2021/06/17 03:53:29;;;;;;;15.10;13.52;;;;;;;16.93;46.54;100927.88;4916276;28;99127;-77
2021/06/17 03:55:57;;;;;;;15.35;13.48;;;;;;;16.86;46.41;100929.69;4915894;28;98378;-78
2021/06/17 03:58:27;;;;;;;14.82;13.32;;;;;;;16.86;46.55;100934.16;4913873;28;97689;-77
2021/06/17 04:00:56;;;;;;;14.20;12.93;;;;;;;16.84;46.39;100930.59;4925565;28;98569;-78
2021/06/17 04:03:26;;;;;;;15.45;13.82;;;;;;;16.82;46.39;100930.59;4912237;28;98240;-78
2021/06/17 04:05:56;;;;;;;18.43;16.43;;;;;;;17.23;46.59;100930.47;4913607;28;97730;-79
2021/06/17 04:08:27;;;;;;;17.03;15.33;;;;;;;17.36;46.63;100931.31;4897213;28;98074;-79
2021/06/17 04:10:56;;;;;;;20.98;14.15;;;;;;;17.07;46.82;100926.06;4930243;28;98663;-78
2021/06/17 04:13:27;;;;;;;15.57;14.00;;;;;;;16.98;46.87;100928.78;4916538;28;97827;-77
2021/06/17 04:15:55;;;;;;;14.98;13.45;;;;;;;16.90;46.98;100941.34;4917547;28;98880;-78
2021/06/17 04:18:24;;;;;;;16.38;14.15;;;;;;;16.85;46.66;100940.47;4912900;28;98057;-79
2021/06/17 04:20:54;;;;;;;15.95;14.27;;;;;;;16.84;46.99;100946.72;4890844;28;98111;-79
2021/06/17 04:23:23;;;;;;;17.02;15.35;;;;;;;16.84;46.71;100941.34;4912021;28;96768;-79
2021/06/17 04:25:52;;;;;;;19.48;17.50;;;;;;;17.24;46.80;100936.72;4909885;28;100478;-78
2021/06/17 04:28:20;;;;;;;17.50;15.07;;;;;;;17.01;46.86;100939.50;4912289;28;99477;-77
2021/06/17 04:30:51;;;;;;;19.30;16.60;;;;;;;16.94;47.22;100943.13;4912717;28;97496;-79
2021/06/17 04:33:21;;;;;;;18.15;16.40;;;;;;;16.94;46.96;100940.44;4912081;28;97375;-77
2021/06/17 04:35:54;;;;;;;17.52;15.50;;;;;;;16.92;46.84;100939.53;4926513;28;97658;-79
2021/06/17 04:38:22;;;;;;;15.93;14.27;;;;;;;16.92;46.49;100947.59;4912181;28;98268;-78
2021/06/17 04:40:51;;;;;;;15.85;14.32;;;;;;;16.92;46.50;100952.97;4912221;28;97117;-78
2021/06/17 04:43:21;;;;;;;17.15;14.73;;;;;;;16.94;46.65;100948.50;4912725;28;97382;-78
2021/06/17 04:45:52;;;;;;;17.13;14.15;;;;;;;16.96;46.60;100957.47;4889925;28;100113;-80
2021/06/17 04:48:23;;;;;;;19.10;16.93;;;;;;;17.30;46.31;100953.75;4899779;28;98261;-83
2021/06/17 04:50:50;;;;;;;17.15;15.40;;;;;;;17.13;46.80;100960.13;4886035;28;97021;-81
2021/06/17 04:53:19;;;;;;;19.53;16.33;;;;;;;17.45;46.40;100959.13;4885470;28;97527;-78
2021/06/17 04:55:51;;;;;;;17.38;14.95;;;;;;;17.22;46.73;100955.56;4909483;28;100414;-76
2021/06/17 04:58:20;;;;;;;16.50;14.85;;;;;;;17.19;46.88;100960.06;4912872;28;99160;-78
2021/06/17 05:00:48;;;;;;;17.10;15.30;;;;;;;17.18;46.88;100958.28;4923002;28;98708;-78
2021/06/17 05:03:18;;;;;;;22.38;17.40;;;;;;;17.56;46.72;100957.28;4907223;28;97343;-77
2021/06/17 05:05:48;;;;;;;19.20;17.25;;;;;;;17.71;46.13;100956.31;4899556;28;101892;-76
2021/06/17 05:11:01;;;;;;;19.90;14.70;;;;;;;17.38;46.73;100946.59;4894783;28;97499;-76
2021/06/17 05:13:31;;;;;;;21.90;15.00;;;;;;;17.39;46.79;100956.44;4893312;28;98118;-74
2021/06/17 05:16:00;;;;;;;18.15;15.50;;;;;;;17.39;46.59;100944.78;4916694;28;100641;-75
2021/06/17 05:18:30;;;;;;;17.80;15.90;;;;;;;17.39;46.59;100948.38;4904005;28;100781;-75
2021/06/17 05:20:59;;;;;;;19.17;14.55;;;;;;;17.38;46.53;100949.28;4904355;28;96868;-75
2021/06/17 05:23:28;;;;;;;16.65;14.02;;;;;;;17.38;46.50;100946.59;4899799;28;97488;-76
2021/06/17 05:25:58;;;;;;;16.52;14.73;;;;;;;17.40;46.38;100950.16;4900167;28;99498;-76
2021/06/17 05:28:27;;;;;;;18.20;15.10;;;;;;;17.43;46.29;100957.34;4882638;28;99295;-77
2021/06/17 05:30:57;;;;;;;18.85;16.23;;;;;;;17.79;46.31;100959.84;4884532;28;96956;-77
2021/06/17 05:33:25;;;;;;;22.42;15.40;;;;;;;17.64;46.35;100962.59;4885406;28;97052;-76
2021/06/17 05:35:54;;;;;;;20.70;14.90;;;;;;;17.62;46.45;100959.06;4882924;28;98360;-75
2021/06/17 05:38:23;;;;;;;17.55;13.63;;;;;;;17.63;46.30;100967.09;4882556;28;100381;-77
2021/06/17 05:40:52;;;;;;;20.88;16.13;;;;;;;17.98;45.96;100964.22;4899174;28;97699;-71
2021/06/17 05:43:22;;;;;;;18.42;15.02;;;;;;;17.85;46.16;100962.50;4885655;28;97420;-78
2021/06/17 05:45:50;;;;;;;14.63;13.20;;;;;;;17.83;46.12;100961.63;4901003;28;97995;-78
2021/06/17 05:48:18;;;;;;;14.43;12.98;;;;;;;17.84;46.25;100964.28;4913493;28;99950;-77
2021/06/17 05:50:46;;;;;;;17.85;13.75;;;;;;;17.88;46.22;100963.38;4915962;28;98013;-77
2021/06/17 05:53:16;;;;;;;17.63;13.65;;;;;;;17.91;46.07;100954.41;4900406;28;97168;-78
2021/06/17 05:55:44;;;;;;;14.55;13.23;;;;;;;17.93;45.95;100964.22;4898597;28;100503;-79
2021/06/17 05:58:12;;;;;;;14.73;12.70;;;;;;;17.97;45.78;100965.09;4898057;28;99505;-78
2021/06/17 06:00:42;;;;;;;14.45;13.15;;;;;;;17.99;46.04;100958.81;4915824;28;97453;-76
2021/06/17 06:03:10;;;;;;;15.70;14.05;;;;;;;18.03;45.78;100965.97;4901099;28;97416;-76
2021/06/17 06:05:38;;;;;;;15.25;13.65;;;;;;;18.10;45.84;100965.94;4898748;28;99496;-77
2021/06/17 06:08:08;;;;;;;15.38;13.38;;;;;;;18.14;45.58;100965.03;4882868;28;99392;-76
2021/06/17 06:10:37;;;;;;;14.27;12.88;;;;;;;18.18;45.67;100964.13;4900546;28;98068;-79
2021/06/17 06:13:05;;;;;;;15.65;14.00;;;;;;;18.23;45.57;100975.75;4899557;28;97232;-77
2021/06/17 06:15:34;;;;;;;17.90;15.38;;;;;;;18.54;46.17;100980.00;4899197;28;99748;-77
2021/06/17 06:18:06;;;;;;;21.75;13.70;;;;;;;18.47;45.77;100975.56;4902368;28;97808;-77
2021/06/17 06:20:35;;;;;;;14.32;12.88;;;;;;;18.48;45.85;100986.31;4903612;28;97759;-77
2021/06/17 06:23:04;;;;;;;14.10;12.80;;;;;;;18.52;45.81;100982.69;4917732;28;97132;-76
2021/06/17 06:25:32;;;;;;;15.55;14.15;;;;;;;18.57;45.42;100985.38;4904278;28;99218;-76
2021/06/17 06:28:01;;;;;;;15.27;13.68;;;;;;;18.60;45.24;100980.84;4901674;28;99135;-77
2021/06/17 06:30:29;;;;;;;16.60;14.88;;;;;;;18.89;45.61;100975.22;4900620;28;98338;-76
2021/06/17 06:32:57;;;;;;;14.70;13.07;;;;;;;18.82;45.56;100971.66;4918106;28;97996;-76
2021/06/17 06:35:25;;;;;;;15.43;12.98;;;;;;;18.85;45.28;100970.75;4900211;28;98130;-77
2021/06/17 06:37:53;;;;;;;14.80;13.32;;;;;;;18.88;45.58;100960.81;4899430;28;97578;-76
2021/06/17 06:40:23;;;;;;;17.10;14.10;;;;;;;19.16;45.05;100965.91;4902016;28;98467;-76
2021/06/17 06:42:51;;;;;;;15.32;13.60;;;;;;;19.28;44.79;100969.38;4900586;28;97725;-77
2021/06/17 06:45:20;;;;;;;15.25;12.70;;;;;;;19.19;44.98;100965.91;4901908;28;98044;-76
2021/06/17 06:47:48;;;;;;;15.57;13.32;;;;;;;19.19;45.15;100971.31;4900381;28;100692;-78
2021/06/17 06:50:16;;;;;;;12.27;11.25;;;;;;;19.21;45.24;100973.06;4900007;28;97738;-77
2021/06/17 06:52:44;;;;;;;16.75;12.13;;;;;;;19.24;44.85;100970.34;4903857;28;98411;-77
2021/06/17 06:55:13;;;;;;;16.65;15.10;;;;;;;19.25;44.95;100980.22;4900906;28;99401;-77
2021/06/17 06:57:41;;;;;;;13.93;12.52;;;;;;;19.30;44.59;100977.47;4897686;28;97791;-77
2021/06/17 07:00:10;;;;;;;17.33;15.63;;;;;;;19.54;44.66;100985.28;4900061;28;97713;-77
2021/06/17 07:02:44;;;;;;;16.85;15.15;;;;;;;19.70;44.85;100984.19;4913058;28;98736;-76
2021/06/17 07:05:12;;;;;;;15.70;13.23;;;;;;;19.60;44.50;100986.13;4897806;28;97678;-77
2021/06/17 07:07:41;;;;;;;12.70;11.60;;;;;;;19.61;44.80;100981.63;4881087;28;99266;-76
2021/06/17 07:10:10;;;;;;;28.02;23.75;;;;;;;19.64;44.62;100987.88;4899448;28;97414;-76
2021/06/17 07:12:39;;;;;;;26.85;23.02;;;;;;;19.67;44.56;100979.72;4883779;28;96958;-76
2021/06/17 07:15:07;;;;;;;16.67;14.18;;;;;;;19.70;44.17;100978.81;4881205;28;99318;-76
2021/06/17 07:17:35;;;;;;;19.80;12.32;;;;;;;19.75;44.05;100975.13;4899256;28;97015;-77
2021/06/17 07:20:07;;;;;;;14.70;12.98;;;;;;;19.99;44.15;100974.78;4898271;28;97487;-76
2021/06/17 07:22:35;;;;;;;23.63;12.38;;;;;;;19.94;43.81;100971.28;4900013;28;97407;-75
2021/06/17 07:25:04;;;;;;;11.27;10.10;;;;;;;19.99;43.46;100976.63;4884554;28;100771;-76
2021/06/17 07:27:32;;;;;;;12.27;11.10;;;;;;;20.01;43.77;100976.59;4897838;28;99527;-76
2021/06/17 07:30:00;;;;;;;11.57;10.43;;;;;;;20.04;43.33;100974.75;4899605;28;97603;-76
2021/06/17 07:32:28;;;;;;;14.90;11.25;;;;;;;20.10;43.29;100981.88;4899665;28;97939;-75
2021/06/17 07:34:56;;;;;;;12.30;11.10;;;;;;;20.14;43.28;100983.59;4901544;28;99036;-76
2021/06/17 07:37:25;;;;;;;13.65;11.45;;;;;;;20.17;43.01;100986.25;4898529;28;99626;-74
2021/06/17 07:39:53;;;;;;;11.23;10.13;;;;;;;20.21;43.05;100991.56;4901113;28;97560;-76
2021/06/17 07:42:21;;;;;;;17.25;11.57;;;;;;;20.26;43.15;100989.72;4902673;28;98422;-77
2021/06/17 07:44:51;;;;;;;12.80;11.50;;;;;;;20.29;43.11;100992.34;4899422;28;101013;-74
2021/06/17 07:47:19;;;;;;;13.80;11.40;;;;;;;20.36;42.83;100998.53;4901068;28;99997;-74
2021/06/17 07:49:47;;;;;;;12.75;11.57;;;;;;;20.40;42.84;100992.19;4901636;28;97250;-76
2021/06/17 07:52:15;;;;;;;15.30;12.93;;;;;;;20.61;41.96;100995.47;4898750;28;97039;-76
2021/06/17 07:54:44;;;;;;;13.48;12.10;;;;;;;20.59;42.21;100994.63;4900242;28;98820;-76
2021/06/17 07:57:11;;;;;;;11.65;10.65;;;;;;;20.64;42.04;100992.72;4901825;28;98947;-77
2021/06/17 07:59:39;;;;;;;10.98;9.88;;;;;;;20.70;42.35;100994.44;4901613;28;97474;-78
2021/06/17 08:02:08;;;;;;;11.68;10.35;;;;;;;20.75;42.11;100990.72;4914026;28;98053;-77
2021/06/17 08:04:36;;;;;;;12.23;11.13;;;;;;;20.82;42.15;100988.78;4900214;28;98747;-76
2021/06/17 08:07:04;;;;;;;12.35;11.07;;;;;;;20.86;41.71;100985.13;4901013;28;97986;-75
2021/06/17 08:09:33;;;;;;;11.93;10.30;;;;;;;20.91;41.86;100988.63;4899020;28;98025;-76
2021/06/17 08:12:02;;;;;;;19.10;17.10;;;;;;;20.96;41.90;100989.44;4901874;28;96829;-75
2021/06/17 08:14:29;;;;;;;19.33;16.15;;;;;;;21.05;41.60;100996.50;4900264;28;99584;-76
2021/06/17 08:16:58;;;;;;;12.13;11.10;;;;;;;21.11;41.56;100988.25;4899090;28;99623;-75
2021/06/17 08:19:28;;;;;;;12.05;10.23;;;;;;;21.32;40.99;100991.50;4898052;28;98070;-75
2021/06/17 08:21:57;;;;;;;16.15;9.95;;;;;;;21.32;40.99;100986.09;4884263;28;97615;-75
2021/06/17 08:24:25;;;;;;;10.70;9.60;;;;;;;21.38;41.10;100990.47;4916045;28;100830;-76
2021/06/17 08:26:53;;;;;;;13.27;9.27;;;;;;;21.44;40.93;100988.53;4897750;28;98789;-77
2021/06/17 08:29:23;;;;;;;10.30;9.25;;;;;;;21.49;40.87;100992.03;4897553;28;97858;-76
2021/06/17 08:31:51;;;;;;;11.48;10.18;;;;;;;21.58;40.79;100990.97;4899533;28;97549;-76
2021/06/17 08:34:19;;;;;;;10.80;9.10;;;;;;;21.66;40.69;100983.56;4899008;28;98240;-76
2021/06/17 08:36:47;;;;;;;17.33;10.10;;;;;;;21.72;40.65;100984.38;4913910;28;99191;-76
2021/06/17 08:39:14;;;;;;;9.98;8.98;;;;;;;21.79;40.51;100993.25;4898312;28;97613;-76
2021/06/17 08:41:42;;;;;;;9.98;9.05;;;;;;;21.84;40.23;100994.91;4901778;28;98025;-76
2021/06/17 08:44:10;;;;;;;10.10;9.20;;;;;;;21.89;40.20;100998.41;4900919;28;100541;-76
2021/06/17 08:46:40;;;;;;;9.50;8.40;;;;;;;21.98;40.01;100996.44;4899176;28;97839;-78
2021/06/17 08:49:08;;;;;;;9.82;8.95;;;;;;;22.01;39.97;101001.78;4900106;28;97405;-78
2021/06/17 08:51:39;;;;;;;11.93;8.32;;;;;;;22.07;39.86;100997.13;4915841;28;97054;-76
2021/06/17 08:54:08;;;;;;;9.15;8.32;;;;;;;22.17;39.76;100997.78;4898680;28;99716;-76
2021/06/17 08:56:37;;;;;;;9.68;8.27;;;;;;;22.22;39.67;100998.59;4898104;28;99275;-77
2021/06/17 08:59:06;;;;;;;9.43;8.45;;;;;;;22.30;39.49;100993.91;4882980;28;97481;-77
2021/06/17 09:01:34;;;;;;;9.57;8.68;;;;;;;22.35;39.39;100997.38;4899109;28;97612;-77
2021/06/17 09:04:18;;;;;;;9.02;8.10;;;;;;;22.43;39.04;100988.16;4916099;28;97621;-76
2021/06/17 09:07:00;;;;;;;9.82;8.60;;;;;;;22.50;39.38;100991.59;4915629;28;100914;-78
2021/06/17 09:09:32;;;;;;;10.45;8.45;;;;;;;22.56;39.29;100991.44;4900503;28;97869;-79
2021/06/17 09:12:00;;;;;;;9.80;7.97;;;;;;;22.65;39.13;100992.13;4901445;28;96911;-77
2021/06/17 09:14:28;;;;;;;9.15;8.15;;;;;;;22.70;38.91;100992.88;4885682;28;99515;-79
2021/06/17 09:16:58;;;;;;;10.27;8.35;;;;;;;22.77;38.96;101001.75;4903754;28;97716;-76
2021/06/17 09:19:39;;;;;;;12.80;8.10;;;;;;;22.83;38.21;100996.19;4901389;28;97631;-76
2021/06/17 09:22:08;;;;;;;13.82;11.30;;;;;;;22.89;38.79;101002.34;4902091;28;97508;-76
2021/06/17 09:24:38;;;;;;;10.68;7.88;;;;;;;22.94;38.42;101004.97;4903908;28;98158;-78
2021/06/17 09:27:23;;;;;;;8.23;7.13;;;;;;;22.99;35.51;100997.56;4900919;28;100574;-77
2021/06/17 09:29:53;;;;;;;7.95;7.32;;;;;;;23.11;37.82;100999.97;4901329;28;97448;-76
2021/06/17 09:32:23;;;;;;;7.95;7.25;;;;;;;23.18;37.75;100996.16;4903461;28;97297;-77
2021/06/17 09:34:52;;;;;;;7.85;6.43;;;;;;;23.25;37.33;100986.91;4917912;28;101048;-78
2021/06/17 09:37:37;;;;;;;7.78;7.07;;;;;;;23.33;36.67;100987.56;4913442;28;99085;-79
2021/06/17 09:40:30;;;;;;;10.48;7.43;;;;;;;23.41;36.22;100981.94;4900292;28;96861;-78
2021/06/17 09:43:15;;;;;;;12.73;7.95;;;;;;;23.49;36.27;100980.81;4893890;28;97323;-77
2021/06/17 09:45:52;;;;;;;7.72;6.93;;;;;;;23.56;37.02;100979.69;4899618;28;100190;-79
2021/06/17 09:48:42;;;;;;;8.77;7.87;;;;;;;23.73;35.29;100985.50;4898182;28;99065;-77
2021/06/17 09:51:26;;;;;;;8.27;6.88;;;;;;;23.75;34.46;100980.91;4887113;28;97339;-78
2021/06/17 09:54:06;;;;;;;7.95;7.13;;;;;;;23.83;35.84;100980.69;4905307;28;97820;-79
2021/06/17 09:56:35;;;;;;;9.15;8.05;;;;;;;23.92;35.88;100975.00;4902927;28;98378;-77
2021/06/17 09:59:03;;;;;;;12.00;9.50;;;;;;;24.00;35.64;100974.75;4905183;28;97344;-76
2021/06/17 10:01:34;;;;;;;7.90;7.20;;;;;;;24.05;35.41;100972.78;4904718;28;97356;-78
2021/06/17 10:04:05;;;;;;;8.55;6.57;;;;;;;24.11;35.23;100980.75;4903941;28;97161;-77
2021/06/17 10:06:35;;;;;;;8.23;5.75;;;;;;;24.20;35.26;100969.56;4919261;28;99849;-76
2021/06/17 10:09:07;;;;;;;10.85;7.10;;;;;;;24.27;35.40;100972.06;4904097;28;97817;-75
2021/06/17 10:11:36;;;;;;;7.07;6.43;;;;;;;24.34;34.93;100965.47;4904183;28;97371;-76
2021/06/17 10:14:04;;;;;;;7.95;6.43;;;;;;;24.37;34.74;100964.50;4903472;28;97528;-75
2021/06/17 10:16:33;;;;;;;7.82;6.55;;;;;;;24.40;34.73;100965.28;4903004;28;97862;-76
2021/06/17 10:19:02;;;;;;;6.72;6.15;;;;;;;24.44;34.97;100960.66;4903341;28;98762;-76
2021/06/17 10:21:31;;;;;;;7.53;6.83;;;;;;;24.58;32.58;100963.78;4903690;28;97134;-78
2021/06/17 10:24:01;;;;;;;6.10;5.60;;;;;;;24.59;33.24;100960.16;4905414;28;96864;-79
2021/06/17 10:26:30;;;;;;;7.03;6.40;;;;;;;24.64;33.52;100969.94;4879541;28;102228;-74
2021/06/17 10:28:58;;;;;;;6.70;6.10;;;;;;;24.70;33.21;100957.94;4851384;28;99633;-76
2021/06/17 10:31:49;;;;;;;6.22;5.63;;;;;;;24.76;31.40;100947.72;4858657;28;97324;-78
2021/06/17 10:34:32;;;;;;;6.25;5.35;;;;;;;24.83;32.11;100942.06;4887334;28;98474;-79
2021/06/17 10:37:12;;;;;;;6.32;5.90;;;;;;;24.90;32.57;100947.25;4856354;28;98144;-76
2021/06/17 10:39:43;;;;;;;7.88;6.05;;;;;;;24.96;33.07;100947.03;4856261;28;99623;-76
2021/06/17 10:42:16;;;;;;;6.50;5.95;;;;;;;25.04;32.85;100947.69;4860733;28;98005;-77
2021/06/17 10:44:54;;;;;;;5.97;5.47;;;;;;;25.12;32.25;100941.94;4858982;28;97692;-77
2021/06/17 10:48:04;;;;;;;8.43;6.45;;;;;;;25.19;30.39;100932.59;4857255;28;97699;-75
2021/06/17 10:50:51;;;;;;;8.30;5.97;;;;;;;25.24;31.86;100931.50;4889817;28;99948;-75
2021/06/17 10:53:24;;;;;;;5.90;5.40;;;;;;;25.30;32.23;100933.97;4886321;28;97408;-75
2021/06/17 10:56:01;;;;;;;6.20;5.07;;;;;;;25.37;31.63;100930.09;4859394;28;97492;-76
2021/06/17 10:58:54;;;;;;;12.85;8.32;;;;;;;25.43;30.38;100929.84;4858036;28;98032;-76
2021/06/17 11:01:30;;;;;;;7.00;5.88;;;;;;;25.51;32.32;100922.31;4856082;28;98010;-75
2021/06/17 11:04:01;;;;;;;6.60;6.10;;;;;;;25.56;32.31;100931.19;4856067;28;97920;-77
2021/06/17 11:07:06;;;;;;;8.05;5.82;;;;;;;25.60;30.52;100927.41;4871765;28;97700;-76
2021/06/17 11:09:45;;;;;;;6.93;6.32;;;;;;;25.66;31.55;100920.81;4856378;28;102044;-76
2021/06/17 11:12:44;;;;;;;6.63;5.95;;;;;;;25.73;30.08;100923.25;4857967;28;99032;-77
2021/06/17 11:15:36;;;;;;;5.45;5.05;;;;;;;25.85;30.63;100916.38;4861895;28;97750;-75
2021/06/17 11:18:04;;;;;;;6.13;5.60;;;;;;;25.94;31.35;100917.88;4860676;28;97302;-77
2021/06/17 11:20:40;;;;;;;8.50;5.40;;;;;;;26.07;28.59;100919.22;4886194;28;97641;-78
2021/06/17 11:23:08;;;;;;;5.70;5.30;;;;;;;26.13;29.72;100922.56;4858999;28;99238;-78
2021/06/17 11:25:45;;;;;;;5.82;5.30;;;;;;;26.15;29.41;100920.66;4857051;28;98219;-78
2021/06/17 11:28:19;;;;;;;5.90;5.40;;;;;;;26.22;30.45;100919.44;4874508;28;97505;-77
2021/06/17 11:31:10;;;;;;;5.78;5.25;;;;;;;26.31;29.17;100920.88;4859495;28;98835;-76
2021/06/17 11:33:46;;;;;;;5.82;5.22;;;;;;;26.38;30.00;100916.97;4839847;28;99456;-76